sensor_id;sensor_type;location;lat;lon;timestamp;P1;durP1;ratioP1;P2;durP2;ratioP2
6928;SDS011;3504;52.616;13.238;2023-03-05T00:02:45;16.23;;;4.97;;
6928;SDS011;3504;52.616;13.238;2023-03-05T00:07:45;17.73;;;4.53;;
6928;SDS011;3504;52.616;13.238;2023-03-05T00:12:47;15.40;;;4.87;;
6928;SDS011;3504;52.616;13.238;2023-03-05T00:17:48;21.17;;;4.57;;
6928;SDS011;3504;52.616;13.238;2023-03-05T00:22:48;17.90;;;5.00;;
6928;SDS011;3504;52.616;13.238;2023-03-05T00:27:49;15.03;;;5.00;;
6928;SDS011;3504;52.616;13.238;2023-03-05T00:32:50;16.73;;;4.60;;
6928;SDS011;3504;52.616;13.238;2023-03-05T00:37:50;15.73;;;4.90;;
6928;SDS011;3504;52.616;13.238;2023-03-05T00:42:51;15.40;;;4.50;;
6928;SDS011;3504;52.616;13.238;2023-03-05T00:47:52;12.90;;;3.97;;
6928;SDS011;3504;52.616;13.238;2023-03-05T00:52:53;16.93;;;4.17;;
6928;SDS011;3504;52.616;13.238;2023-03-05T00:57:53;7.87;;;3.70;;
6928;SDS011;3504;52.616;13.238;2023-03-05T01:02:54;13.37;;;3.90;;
6928;SDS011;3504;52.616;13.238;2023-03-05T01:07:55;13.77;;;3.50;;
6928;SDS011;3504;52.616;13.238;2023-03-05T01:12:55;11.17;;;3.47;;
6928;SDS011;3504;52.616;13.238;2023-03-05T01:17:56;15.00;;;3.37;;
6928;SDS011;3504;52.616;13.238;2023-03-05T01:22:56;14.87;;;3.70;;
6928;SDS011;3504;52.616;13.238;2023-03-05T01:27:58;11.53;;;3.30;;
6928;SDS011;3504;52.616;13.238;2023-03-05T01:32:59;8.83;;;2.77;;
6928;SDS011;3504;52.616;13.238;2023-03-05T01:37:59;9.00;;;3.07;;
6928;SDS011;3504;52.616;13.238;2023-03-05T01:48:09;14.20;;;3.20;;
6928;SDS011;3504;52.616;13.238;2023-03-05T01:53:10;8.80;;;2.73;;
6928;SDS011;3504;52.616;13.238;2023-03-05T01:58:10;8.03;;;2.73;;
6928;SDS011;3504;52.616;13.238;2023-03-05T02:03:12;7.80;;;2.63;;
6928;SDS011;3504;52.616;13.238;2023-03-05T02:08:14;13.13;;;2.67;;
6928;SDS011;3504;52.616;13.238;2023-03-05T02:13:19;6.43;;;2.30;;
6928;SDS011;3504;52.616;13.238;2023-03-05T02:18:23;6.13;;;2.00;;
6928;SDS011;3504;52.616;13.238;2023-03-05T02:23:25;7.67;;;2.33;;
6928;SDS011;3504;52.616;13.238;2023-03-05T02:28:45;9.53;;;2.40;;
6928;SDS011;3504;52.616;13.238;2023-03-05T02:33:49;11.77;;;2.77;;
6928;SDS011;3504;52.616;13.238;2023-03-05T02:38:52;8.33;;;2.77;;
6928;SDS011;3504;52.616;13.238;2023-03-05T02:43:56;5.33;;;2.20;;
6928;SDS011;3504;52.616;13.238;2023-03-05T02:48:57;6.93;;;2.47;;
6928;SDS011;3504;52.616;13.238;2023-03-05T02:53:58;7.40;;;2.10;;
6928;SDS011;3504;52.616;13.238;2023-03-05T02:59:00;5.40;;;2.13;;
6928;SDS011;3504;52.616;13.238;2023-03-05T03:04:01;5.83;;;2.10;;
6928;SDS011;3504;52.616;13.238;2023-03-05T03:09:01;6.60;;;2.30;;
6928;SDS011;3504;52.616;13.238;2023-03-05T03:14:02;5.87;;;2.47;;
6928;SDS011;3504;52.616;13.238;2023-03-05T03:19:02;7.57;;;2.37;;
6928;SDS011;3504;52.616;13.238;2023-03-05T03:24:03;10.17;;;2.00;;
6928;SDS011;3504;52.616;13.238;2023-03-05T03:29:04;5.73;;;2.07;;
6928;SDS011;3504;52.616;13.238;2023-03-05T03:34:04;6.67;;;2.10;;
6928;SDS011;3504;52.616;13.238;2023-03-05T03:39:05;8.03;;;2.73;;
6928;SDS011;3504;52.616;13.238;2023-03-05T03:44:05;8.40;;;2.47;;
6928;SDS011;3504;52.616;13.238;2023-03-05T03:49:10;11.63;;;2.87;;
6928;SDS011;3504;52.616;13.238;2023-03-05T03:54:20;8.37;;;2.23;;
6928;SDS011;3504;52.616;13.238;2023-03-05T03:59:21;9.73;;;2.50;;
6928;SDS011;3504;52.616;13.238;2023-03-05T04:04:22;8.47;;;2.67;;
6928;SDS011;3504;52.616;13.238;2023-03-05T04:09:22;9.77;;;2.50;;
6928;SDS011;3504;52.616;13.238;2023-03-05T04:14:23;6.37;;;2.10;;
6928;SDS011;3504;52.616;13.238;2023-03-05T04:19:25;6.43;;;2.13;;
6928;SDS011;3504;52.616;13.238;2023-03-05T04:24:27;11.47;;;2.40;;
6928;SDS011;3504;52.616;13.238;2023-03-05T04:29:27;8.33;;;2.13;;
6928;SDS011;3504;52.616;13.238;2023-03-05T04:34:28;8.60;;;1.93;;
6928;SDS011;3504;52.616;13.238;2023-03-05T04:39:30;5.47;;;2.30;;
6928;SDS011;3504;52.616;13.238;2023-03-05T04:44:30;7.20;;;3.07;;
6928;SDS011;3504;52.616;13.238;2023-03-05T04:49:31;8.90;;;2.33;;
6928;SDS011;3504;52.616;13.238;2023-03-05T04:54:31;7.17;;;2.97;;
6928;SDS011;3504;52.616;13.238;2023-03-05T04:59:32;7.50;;;2.40;;
6928;SDS011;3504;52.616;13.238;2023-03-05T05:04:32;7.10;;;2.23;;
6928;SDS011;3504;52.616;13.238;2023-03-05T05:09:35;6.33;;;2.40;;
6928;SDS011;3504;52.616;13.238;2023-03-05T05:14:36;8.93;;;2.90;;
6928;SDS011;3504;52.616;13.238;2023-03-05T05:19:37;13.47;;;2.70;;
6928;SDS011;3504;52.616;13.238;2023-03-05T05:24:37;7.50;;;3.20;;
6928;SDS011;3504;52.616;13.238;2023-03-05T05:29:38;9.20;;;2.60;;
6928;SDS011;3504;52.616;13.238;2023-03-05T05:34:38;8.87;;;2.33;;
6928;SDS011;3504;52.616;13.238;2023-03-05T05:39:39;4.97;;;2.37;;
6928;SDS011;3504;52.616;13.238;2023-03-05T05:44:39;5.87;;;1.93;;
6928;SDS011;3504;52.616;13.238;2023-03-05T05:49:40;11.17;;;3.20;;
6928;SDS011;3504;52.616;13.238;2023-03-05T05:54:40;8.10;;;2.13;;
6928;SDS011;3504;52.616;13.238;2023-03-05T05:59:41;8.40;;;2.60;;
6928;SDS011;3504;52.616;13.238;2023-03-05T06:04:41;9.43;;;2.93;;
6928;SDS011;3504;52.616;13.238;2023-03-05T06:09:42;5.60;;;2.53;;
6928;SDS011;3504;52.616;13.238;2023-03-05T06:14:42;7.40;;;2.40;;
6928;SDS011;3504;52.616;13.238;2023-03-05T06:19:43;8.33;;;2.40;;
6928;SDS011;3504;52.616;13.238;2023-03-05T06:24:43;6.77;;;2.40;;
6928;SDS011;3504;52.616;13.238;2023-03-05T06:29:44;6.73;;;2.57;;
6928;SDS011;3504;52.616;13.238;2023-03-05T06:34:44;9.90;;;2.70;;
6928;SDS011;3504;52.616;13.238;2023-03-05T06:39:45;7.17;;;2.53;;
6928;SDS011;3504;52.616;13.238;2023-03-05T06:44:45;8.20;;;2.40;;
6928;SDS011;3504;52.616;13.238;2023-03-05T06:49:46;8.90;;;2.43;;
6928;SDS011;3504;52.616;13.238;2023-03-05T06:54:46;3.87;;;2.17;;
6928;SDS011;3504;52.616;13.238;2023-03-05T06:59:47;6.13;;;2.20;;
6928;SDS011;3504;52.616;13.238;2023-03-05T07:04:47;8.10;;;2.10;;
6928;SDS011;3504;52.616;13.238;2023-03-05T07:09:48;10.87;;;2.20;;
6928;SDS011;3504;52.616;13.238;2023-03-05T07:14:49;8.97;;;3.03;;
6928;SDS011;3504;52.616;13.238;2023-03-05T07:19:50;6.27;;;2.57;;
6928;SDS011;3504;52.616;13.238;2023-03-05T07:24:50;5.77;;;2.47;;
6928;SDS011;3504;52.616;13.238;2023-03-05T07:29:51;7.63;;;2.70;;
6928;SDS011;3504;52.616;13.238;2023-03-05T07:34:51;7.37;;;2.53;;
6928;SDS011;3504;52.616;13.238;2023-03-05T07:39:52;6.83;;;2.70;;
6928;SDS011;3504;52.616;13.238;2023-03-05T07:44:52;6.53;;;2.57;;
6928;SDS011;3504;52.616;13.238;2023-03-05T07:49:53;5.60;;;2.20;;
6928;SDS011;3504;52.616;13.238;2023-03-05T07:54:53;8.60;;;2.63;;
6928;SDS011;3504;52.616;13.238;2023-03-05T07:59:54;6.13;;;1.77;;
6928;SDS011;3504;52.616;13.238;2023-03-05T08:04:54;8.57;;;2.33;;
6928;SDS011;3504;52.616;13.238;2023-03-05T08:09:55;7.43;;;3.20;;
6928;SDS011;3504;52.616;13.238;2023-03-05T08:14:55;7.40;;;2.43;;
6928;SDS011;3504;52.616;13.238;2023-03-05T08:19:56;5.57;;;2.37;;
6928;SDS011;3504;52.616;13.238;2023-03-05T08:24:59;6.73;;;2.00;;
6928;SDS011;3504;52.616;13.238;2023-03-05T08:30:00;7.47;;;2.27;;
6928;SDS011;3504;52.616;13.238;2023-03-05T08:35:01;5.10;;;1.50;;
6928;SDS011;3504;52.616;13.238;2023-03-05T08:40:03;8.37;;;2.47;;
6928;SDS011;3504;52.616;13.238;2023-03-05T08:45:05;2.27;;;1.50;;
6928;SDS011;3504;52.616;13.238;2023-03-05T08:50:06;6.00;;;2.17;;
6928;SDS011;3504;52.616;13.238;2023-03-05T08:55:08;6.97;;;2.20;;
6928;SDS011;3504;52.616;13.238;2023-03-05T09:00:10;4.20;;;1.80;;
6928;SDS011;3504;52.616;13.238;2023-03-05T09:05:12;7.70;;;1.80;;
6928;SDS011;3504;52.616;13.238;2023-03-05T09:10:13;6.70;;;2.17;;
6928;SDS011;3504;52.616;13.238;2023-03-05T09:15:17;4.00;;;2.07;;
6928;SDS011;3504;52.616;13.238;2023-03-05T09:20:17;5.83;;;1.70;;
6928;SDS011;3504;52.616;13.238;2023-03-05T09:25:18;7.53;;;2.70;;
6928;SDS011;3504;52.616;13.238;2023-03-05T09:30:19;7.80;;;1.93;;
6928;SDS011;3504;52.616;13.238;2023-03-05T09:35:20;7.53;;;2.07;;
6928;SDS011;3504;52.616;13.238;2023-03-05T09:40:21;4.57;;;2.03;;
6928;SDS011;3504;52.616;13.238;2023-03-05T09:45:25;5.70;;;2.20;;
6928;SDS011;3504;52.616;13.238;2023-03-05T09:50:49;7.97;;;2.53;;
6928;SDS011;3504;52.616;13.238;2023-03-05T09:55:59;6.57;;;2.03;;
6928;SDS011;3504;52.616;13.238;2023-03-05T10:01:21;6.73;;;2.03;;
6928;SDS011;3504;52.616;13.238;2023-03-05T10:06:28;4.57;;;2.40;;
6928;SDS011;3504;52.616;13.238;2023-03-05T10:11:39;5.03;;;2.20;;
6928;SDS011;3504;52.616;13.238;2023-03-05T10:17:09;4.60;;;2.00;;
6928;SDS011;3504;52.616;13.238;2023-03-05T10:22:38;6.23;;;2.23;;
6928;SDS011;3504;52.616;13.238;2023-03-05T10:28:09;6.20;;;2.33;;
6928;SDS011;3504;52.616;13.238;2023-03-05T10:44:22;4.93;;;2.73;;
6928;SDS011;3504;52.616;13.238;2023-03-05T10:49:36;5.13;;;2.13;;
6928;SDS011;3504;52.616;13.238;2023-03-05T10:54:50;7.50;;;2.60;;
6928;SDS011;3504;52.616;13.238;2023-03-05T10:59:57;6.47;;;2.43;;
6928;SDS011;3504;52.616;13.238;2023-03-05T11:05:11;7.20;;;2.77;;
6928;SDS011;3504;52.616;13.238;2023-03-05T11:10:39;7.00;;;2.63;;
6928;SDS011;3504;52.616;13.238;2023-03-05T11:15:40;7.83;;;2.57;;
6928;SDS011;3504;52.616;13.238;2023-03-05T11:20:40;4.90;;;2.80;;
6928;SDS011;3504;52.616;13.238;2023-03-05T11:31:22;6.07;;;2.93;;
6928;SDS011;3504;52.616;13.238;2023-03-05T11:41:42;3.83;;;1.73;;
6928;SDS011;3504;52.616;13.238;2023-03-05T11:52:25;5.33;;;2.33;;
6928;SDS011;3504;52.616;13.238;2023-03-05T11:57:34;2.60;;;2.00;;
6928;SDS011;3504;52.616;13.238;2023-03-05T12:02:44;6.73;;;2.73;;
6928;SDS011;3504;52.616;13.238;2023-03-05T12:07:50;5.90;;;2.47;;
6928;SDS011;3504;52.616;13.238;2023-03-05T12:13:18;6.23;;;2.53;;
6928;SDS011;3504;52.616;13.238;2023-03-05T12:23:46;5.60;;;2.37;;
6928;SDS011;3504;52.616;13.238;2023-03-05T12:28:54;6.53;;;3.10;;
6928;SDS011;3504;52.616;13.238;2023-03-05T12:33:55;7.87;;;3.00;;
6928;SDS011;3504;52.616;13.238;2023-03-05T12:38:56;4.90;;;2.10;;
6928;SDS011;3504;52.616;13.238;2023-03-05T12:59:37;5.80;;;2.27;;
6928;SDS011;3504;52.616;13.238;2023-03-05T13:04:43;3.23;;;1.80;;
6928;SDS011;3504;52.616;13.238;2023-03-05T13:09:55;5.43;;;2.50;;
6928;SDS011;3504;52.616;13.238;2023-03-05T13:15:05;3.87;;;1.97;;
6928;SDS011;3504;52.616;13.238;2023-03-05T13:25:36;5.70;;;2.30;;
6928;SDS011;3504;52.616;13.238;2023-03-05T13:30:37;2.90;;;1.60;;
6928;SDS011;3504;52.616;13.238;2023-03-05T13:35:37;7.53;;;2.13;;
6928;SDS011;3504;52.616;13.238;2023-03-05T13:40:44;4.60;;;2.40;;
6928;SDS011;3504;52.616;13.238;2023-03-05T13:46:02;4.47;;;1.47;;
6928;SDS011;3504;52.616;13.238;2023-03-05T13:51:02;3.13;;;1.50;;
6928;SDS011;3504;52.616;13.238;2023-03-05T13:56:11;4.27;;;2.07;;
6928;SDS011;3504;52.616;13.238;2023-03-05T14:06:30;2.97;;;2.00;;
6928;SDS011;3504;52.616;13.238;2023-03-05T14:11:39;3.60;;;2.17;;
6928;SDS011;3504;52.616;13.238;2023-03-05T14:16:40;2.50;;;1.60;;
6928;SDS011;3504;52.616;13.238;2023-03-05T14:21:42;5.93;;;2.83;;
6928;SDS011;3504;52.616;13.238;2023-03-05T14:26:47;6.27;;;4.27;;
6928;SDS011;3504;52.616;13.238;2023-03-05T14:32:03;6.07;;;2.60;;
6928;SDS011;3504;52.616;13.238;2023-03-05T14:37:17;7.33;;;2.17;;
6928;SDS011;3504;52.616;13.238;2023-03-05T14:47:36;5.57;;;3.77;;
6928;SDS011;3504;52.616;13.238;2023-03-05T14:52:37;5.07;;;3.10;;
6928;SDS011;3504;52.616;13.238;2023-03-05T14:57:37;8.40;;;4.10;;
6928;SDS011;3504;52.616;13.238;2023-03-05T15:02:38;5.00;;;2.10;;
6928;SDS011;3504;52.616;13.238;2023-03-05T15:07:38;5.60;;;1.80;;
6928;SDS011;3504;52.616;13.238;2023-03-05T15:12:39;5.80;;;2.37;;
6928;SDS011;3504;52.616;13.238;2023-03-05T15:17:40;4.13;;;2.17;;
6928;SDS011;3504;52.616;13.238;2023-03-05T15:22:43;6.27;;;3.00;;
6928;SDS011;3504;52.616;13.238;2023-03-05T15:27:44;4.17;;;2.50;;
6928;SDS011;3504;52.616;13.238;2023-03-05T15:32:45;4.43;;;2.60;;
6928;SDS011;3504;52.616;13.238;2023-03-05T15:37:46;6.93;;;2.83;;
6928;SDS011;3504;52.616;13.238;2023-03-05T15:42:46;7.10;;;3.50;;
6928;SDS011;3504;52.616;13.238;2023-03-05T15:47:48;5.63;;;3.07;;
6928;SDS011;3504;52.616;13.238;2023-03-05T15:52:49;9.67;;;5.10;;
6928;SDS011;3504;52.616;13.238;2023-03-05T15:57:50;8.17;;;4.97;;
6928;SDS011;3504;52.616;13.238;2023-03-05T16:02:52;7.77;;;3.73;;
6928;SDS011;3504;52.616;13.238;2023-03-05T16:07:52;5.30;;;3.60;;
6928;SDS011;3504;52.616;13.238;2023-03-05T16:12:56;5.60;;;2.57;;
6928;SDS011;3504;52.616;13.238;2023-03-05T16:18:03;6.00;;;3.47;;
6928;SDS011;3504;52.616;13.238;2023-03-05T16:23:08;7.57;;;4.60;;
6928;SDS011;3504;52.616;13.238;2023-03-05T16:28:09;7.83;;;5.20;;
6928;SDS011;3504;52.616;13.238;2023-03-05T16:33:09;9.80;;;7.40;;
6928;SDS011;3504;52.616;13.238;2023-03-05T16:38:10;6.43;;;4.80;;
6928;SDS011;3504;52.616;13.238;2023-03-05T16:43:10;9.30;;;4.63;;
6928;SDS011;3504;52.616;13.238;2023-03-05T16:48:11;10.67;;;6.67;;
6928;SDS011;3504;52.616;13.238;2023-03-05T16:53:11;8.60;;;5.57;;
6928;SDS011;3504;52.616;13.238;2023-03-05T16:58:12;11.67;;;6.27;;
6928;SDS011;3504;52.616;13.238;2023-03-05T17:03:13;5.10;;;2.87;;
6928;SDS011;3504;52.616;13.238;2023-03-05T17:08:13;6.70;;;3.97;;
6928;SDS011;3504;52.616;13.238;2023-03-05T17:13:14;9.00;;;5.60;;
6928;SDS011;3504;52.616;13.238;2023-03-05T17:18:15;5.83;;;4.30;;
6928;SDS011;3504;52.616;13.238;2023-03-05T17:23:15;7.43;;;5.03;;
6928;SDS011;3504;52.616;13.238;2023-03-05T17:28:16;16.20;;;10.20;;
6928;SDS011;3504;52.616;13.238;2023-03-05T17:33:16;15.57;;;9.67;;
6928;SDS011;3504;52.616;13.238;2023-03-05T17:38:17;12.60;;;6.70;;
6928;SDS011;3504;52.616;13.238;2023-03-05T17:43:17;7.80;;;4.50;;
6928;SDS011;3504;52.616;13.238;2023-03-05T17:48:18;8.00;;;4.37;;
6928;SDS011;3504;52.616;13.238;2023-03-05T17:53:19;7.67;;;3.87;;
6928;SDS011;3504;52.616;13.238;2023-03-05T17:58:20;14.00;;;8.33;;
6928;SDS011;3504;52.616;13.238;2023-03-05T18:03:21;12.97;;;5.90;;
6928;SDS011;3504;52.616;13.238;2023-03-05T18:08:21;8.83;;;5.63;;
6928;SDS011;3504;52.616;13.238;2023-03-05T18:13:22;9.27;;;5.60;;
6928;SDS011;3504;52.616;13.238;2023-03-05T18:18:22;10.73;;;5.77;;
6928;SDS011;3504;52.616;13.238;2023-03-05T18:23:23;15.37;;;9.33;;
6928;SDS011;3504;52.616;13.238;2023-03-05T18:28:23;17.13;;;9.00;;
6928;SDS011;3504;52.616;13.238;2023-03-05T18:33:24;10.73;;;5.10;;
6928;SDS011;3504;52.616;13.238;2023-03-05T18:38:26;8.47;;;6.30;;
6928;SDS011;3504;52.616;13.238;2023-03-05T18:43:28;4.40;;;3.20;;
6928;SDS011;3504;52.616;13.238;2023-03-05T18:48:29;5.30;;;3.40;;
6928;SDS011;3504;52.616;13.238;2023-03-05T18:53:30;9.23;;;5.60;;
6928;SDS011;3504;52.616;13.238;2023-03-05T18:58:30;14.43;;;9.83;;
6928;SDS011;3504;52.616;13.238;2023-03-05T19:03:31;10.30;;;5.20;;
6928;SDS011;3504;52.616;13.238;2023-03-05T19:08:32;10.70;;;6.70;;
6928;SDS011;3504;52.616;13.238;2023-03-05T19:13:36;15.30;;;8.23;;
6928;SDS011;3504;52.616;13.238;2023-03-05T19:18:54;11.83;;;5.53;;
6928;SDS011;3504;52.616;13.238;2023-03-05T19:24:12;7.97;;;4.87;;
6928;SDS011;3504;52.616;13.238;2023-03-05T19:29:14;10.43;;;4.90;;
6928;SDS011;3504;52.616;13.238;2023-03-05T19:34:15;9.03;;;5.17;;
6928;SDS011;3504;52.616;13.238;2023-03-05T19:39:17;8.17;;;4.60;;
6928;SDS011;3504;52.616;13.238;2023-03-05T19:44:18;9.30;;;4.90;;
6928;SDS011;3504;52.616;13.238;2023-03-05T19:49:19;7.30;;;4.80;;
6928;SDS011;3504;52.616;13.238;2023-03-05T19:54:20;6.50;;;4.40;;
6928;SDS011;3504;52.616;13.238;2023-03-05T19:59:21;7.33;;;4.53;;
6928;SDS011;3504;52.616;13.238;2023-03-05T20:04:23;6.70;;;4.30;;
6928;SDS011;3504;52.616;13.238;2023-03-05T20:09:24;10.07;;;4.67;;
6928;SDS011;3504;52.616;13.238;2023-03-05T20:14:24;8.20;;;4.40;;
6928;SDS011;3504;52.616;13.238;2023-03-05T20:19:25;6.70;;;4.30;;
6928;SDS011;3504;52.616;13.238;2023-03-05T20:24:25;8.07;;;4.30;;
6928;SDS011;3504;52.616;13.238;2023-03-05T20:29:26;6.07;;;4.30;;
6928;SDS011;3504;52.616;13.238;2023-03-05T20:34:26;8.50;;;5.00;;
6928;SDS011;3504;52.616;13.238;2023-03-05T20:39:27;8.03;;;4.93;;
6928;SDS011;3504;52.616;13.238;2023-03-05T20:44:27;6.27;;;4.47;;
6928;SDS011;3504;52.616;13.238;2023-03-05T20:49:28;7.03;;;4.63;;
6928;SDS011;3504;52.616;13.238;2023-03-05T20:54:28;4.70;;;4.03;;
6928;SDS011;3504;52.616;13.238;2023-03-05T20:59:29;6.83;;;4.60;;
6928;SDS011;3504;52.616;13.238;2023-03-05T21:04:29;7.23;;;4.70;;
6928;SDS011;3504;52.616;13.238;2023-03-05T21:09:30;11.53;;;5.40;;
6928;SDS011;3504;52.616;13.238;2023-03-05T21:14:30;8.97;;;4.47;;
6928;SDS011;3504;52.616;13.238;2023-03-05T21:19:37;7.60;;;4.30;;
6928;SDS011;3504;52.616;13.238;2023-03-05T21:24:38;7.90;;;5.33;;
6928;SDS011;3504;52.616;13.238;2023-03-05T21:29:54;9.33;;;5.23;;
6928;SDS011;3504;52.616;13.238;2023-03-05T21:34:55;10.07;;;5.90;;
6928;SDS011;3504;52.616;13.238;2023-03-05T21:39:55;7.07;;;5.40;;
6928;SDS011;3504;52.616;13.238;2023-03-05T21:44:55;10.03;;;5.00;;
6928;SDS011;3504;52.616;13.238;2023-03-05T21:49:56;10.00;;;4.83;;
6928;SDS011;3504;52.616;13.238;2023-03-05T21:54:57;8.03;;;5.20;;
6928;SDS011;3504;52.616;13.238;2023-03-05T21:59:57;8.73;;;4.87;;
6928;SDS011;3504;52.616;13.238;2023-03-05T22:04:58;10.80;;;5.10;;
6928;SDS011;3504;52.616;13.238;2023-03-05T22:09:59;7.37;;;4.87;;
6928;SDS011;3504;52.616;13.238;2023-03-05T22:14:59;7.87;;;4.47;;
6928;SDS011;3504;52.616;13.238;2023-03-05T22:20:00;7.30;;;4.60;;
6928;SDS011;3504;52.616;13.238;2023-03-05T22:25:01;5.23;;;4.23;;
6928;SDS011;3504;52.616;13.238;2023-03-05T22:30:03;6.50;;;3.87;;
6928;SDS011;3504;52.616;13.238;2023-03-05T22:35:05;6.93;;;3.67;;
6928;SDS011;3504;52.616;13.238;2023-03-05T22:40:13;5.33;;;3.97;;
6928;SDS011;3504;52.616;13.238;2023-03-05T22:45:17;8.33;;;5.80;;
6928;SDS011;3504;52.616;13.238;2023-03-05T22:50:18;7.50;;;5.57;;
6928;SDS011;3504;52.616;13.238;2023-03-05T22:55:18;8.53;;;5.60;;
6928;SDS011;3504;52.616;13.238;2023-03-05T23:00:20;9.10;;;4.60;;
6928;SDS011;3504;52.616;13.238;2023-03-05T23:05:22;7.30;;;4.80;;
6928;SDS011;3504;52.616;13.238;2023-03-05T23:10:23;10.97;;;5.37;;
6928;SDS011;3504;52.616;13.238;2023-03-05T23:20:32;7.57;;;4.47;;
6928;SDS011;3504;52.616;13.238;2023-03-05T23:25:35;7.70;;;4.20;;
6928;SDS011;3504;52.616;13.238;2023-03-05T23:30:36;7.17;;;4.33;;
6928;SDS011;3504;52.616;13.238;2023-03-05T23:35:39;6.93;;;4.43;;
6928;SDS011;3504;52.616;13.238;2023-03-05T23:40:48;8.57;;;4.80;;
6928;SDS011;3504;52.616;13.238;2023-03-05T23:45:52;7.50;;;5.10;;
6928;SDS011;3504;52.616;13.238;2023-03-05T23:50:56;4.67;;;3.70;;
6928;SDS011;3504;52.616;13.238;2023-03-05T23:55:56;6.43;;;3.47;;
